Time;durP1;ratioP1;P1;durP2;ratioP2;P2;SDS_P1;SDS_P2;PMS_P1;PMS_P2;Temp;Humidity;BMP_temperature;BMP_pressure;BME280_temperature;BME280_humidity;BME280_pressure;Samples;Min_cycle;Max_cycle;Signal;HPM_P1;HPM_P2
2022/09/18 00:01:32;;;;;;;7.07;1.40;;;;;;;11.16;88.69;101467.50;4934831;28;20128;-68
2022/09/18 00:04:03;;;;;;;7.88;1.40;;;;;;;11.15;88.83;101472.84;4934860;28;20131;-69
2022/09/18 00:06:35;;;;;;;5.68;1.38;;;;;;;11.18;88.92;101485.97;4934320;28;20070;-69
2022/09/18 00:09:07;;;;;;;7.25;1.05;;;;;;;11.17;88.70;101478.97;4932476;29;20540;-68
2022/09/18 00:11:43;;;;;;;11.35;1.80;;;;;;;11.18;88.84;101476.28;4934710;28;20104;-69
2022/09/18 00:14:14;;;;;;;8.38;1.58;;;;;;;11.17;88.78;101482.44;4933659;28;20037;-69
2022/09/18 00:16:42;;;;;;;6.30;1.70;;;;;;;11.18;88.67;101472.78;4934544;28;20048;-69
2022/09/18 00:19:10;;;;;;;7.68;1.13;;;;;;;11.17;88.84;101474.53;4933040;28;20482;-69
2022/09/18 00:21:45;;;;;;;4.80;1.10;;;;;;;11.18;89.03;101478.91;4934794;28;20052;-69
2022/09/18 00:24:13;;;;;;;6.47;1.27;;;;;;;11.17;88.62;101466.63;4933868;28;20036;-68
2022/09/18 00:26:40;;;;;;;6.10;1.30;;;;;;;11.16;88.45;101466.66;4934718;28;20071;-69
2022/09/18 00:29:07;;;;;;;7.07;1.50;;;;;;;11.16;88.50;101462.22;4933419;28;20063;-69
2022/09/18 00:31:35;;;;;;;6.70;1.20;;;;;;;11.15;88.89;101462.28;4934519;28;20052;-70
2022/09/18 00:34:07;;;;;;;6.78;1.20;;;;;;;11.13;88.97;101462.31;4932758;28;20534;-69
2022/09/18 00:36:38;;;;;;;4.70;1.20;;;;;;;11.10;89.01;101459.75;4934333;29;20420;-69
2022/09/18 00:39:06;;;;;;;6.05;1.13;;;;;;;11.11;89.28;101460.59;4936491;28;21293;-69
2022/09/18 00:41:38;;;;;;;6.63;1.83;;;;;;;11.10;89.17;101462.38;4932521;29;20090;-70
2022/09/18 00:44:42;;;;;;;7.60;1.15;;;;;;;11.09;89.41;101470.34;4929135;29;20063;-69
2022/09/18 00:47:08;;;;;;;7.88;1.17;;;;;;;11.09;89.93;101470.34;4931853;29;20127;-70
2022/09/18 00:49:41;;;;;;;7.65;1.35;;;;;;;11.08;89.75;101466.81;4933025;28;20040;-70
2022/09/18 00:52:10;;;;;;;11.48;1.48;;;;;;;11.10;89.82;101469.41;4933986;28;20428;-69
2022/09/18 00:54:42;;;;;;;3.65;1.10;;;;;;;11.10;89.77;101467.66;4944325;28;20049;-70
2022/09/18 00:57:18;;;;;;;6.20;1.00;;;;;;;11.10;89.56;101469.41;4926848;29;20044;-69
2022/09/18 00:59:48;;;;;;;7.00;1.23;;;;;;;11.10;89.80;101469.41;4944578;28;20040;-70
2022/09/18 01:02:16;;;;;;;4.88;1.25;;;;;;;11.11;89.71;101474.69;4933674;29;20051;-70
2022/09/18 01:04:45;;;;;;;9.50;1.08;;;;;;;11.11;89.80;101479.06;4932739;29;20055;-69
2022/09/18 01:07:43;;;;;;;6.85;1.27;;;;;;;11.11;89.78;101474.69;4933629;28;20055;-69
2022/09/18 01:10:53;;;;;;;8.63;1.35;;;;;;;11.08;89.94;101480.03;4929769;29;22438;-69
2022/09/18 01:13:48;;;;;;;7.55;1.23;;;;;;;11.07;90.30;101480.91;4929293;28;20119;-70
2022/09/18 01:16:27;;;;;;;;;;;;;;;11.02;90.71;101488.09;4932891;28;20052;-69
2022/09/18 01:19:16;;;;;;;4.78;1.30;;;;;;;11.02;91.16;101488.94;4929299;29;20288;-70
2022/09/18 01:22:12;;;;;;;5.85;1.35;;;;;;;11.00;91.11;101487.25;4931761;28;20147;-70
2022/09/18 01:25:21;;;;;;;8.00;1.55;;;;;;;10.97;91.67;101479.38;4944348;28;20581;-71
2022/09/18 01:28:08;;;;;;;5.50;1.15;;;;;;;10.96;91.96;101475.00;4922912;28;20518;-71
2022/09/18 01:30:41;;;;;;;8.95;1.52;;;;;;;10.92;92.06;101476.00;4929333;28;20092;-71
2022/09/18 01:33:22;;;;;;;4.85;1.02;;;;;;;10.89;92.47;101469.00;4930205;29;20060;-70
2022/09/18 01:35:59;;;;;;;6.05;1.05;;;;;;;10.87;92.29;101468.19;4921737;29;20124;-72
2022/09/18 01:38:37;;;;;;;6.10;1.15;;;;;;;10.89;92.98;101463.72;4929412;29;20078;-72
2022/09/18 01:41:22;;;;;;;5.03;1.13;;;;;;;10.90;92.91;101467.25;4930796;29;20087;-72
2022/09/18 01:44:03;;;;;;;5.35;1.40;;;;;;;10.87;93.00;101461.13;4929014;28;20044;-72
2022/09/18 01:46:33;;;;;;;5.97;1.70;;;;;;;10.87;93.16;101462.91;4930593;29;20161;-72
2022/09/18 01:49:08;;;;;;;8.07;1.65;;;;;;;10.85;93.00;101455.00;4929755;29;20047;-72
2022/09/18 01:52:00;;;;;;;7.95;1.58;;;;;;;10.87;93.33;101455.00;4947394;28;20054;-72
2022/09/18 01:54:37;;;;;;;7.53;1.55;;;;;;;10.87;93.23;101461.13;4933898;28;20047;-72
2022/09/18 01:57:47;;;;;;;9.93;1.65;;;;;;;10.87;93.57;101450.56;4946842;28;20056;-71
2022/09/18 02:00:16;;;;;;;6.22;1.40;;;;;;;10.88;93.48;101456.72;4851983;29;20075;-71
2022/09/18 02:02:59;;;;;;;5.60;1.38;;;;;;;10.85;93.49;101451.50;4933507;28;20102;-69
2022/09/18 02:05:39;;;;;;;4.57;1.13;;;;;;;10.81;93.50;101448.06;4927690;28;20169;-69
2022/09/18 02:08:26;;;;;;;6.05;1.13;;;;;;;10.80;93.74;101441.06;4931223;29;20504;-69
2022/09/18 02:11:15;;;;;;;10.15;1.70;;;;;;;10.82;93.79;101444.53;4945217;28;20479;-71
2022/09/18 02:14:01;;;;;;;4.65;1.40;;;;;;;10.81;94.01;101450.72;4933749;28;20068;-71
2022/09/18 02:16:53;;;;;;;9.32;1.70;;;;;;;10.81;94.03;101447.19;4929503;28;20055;-71
2022/09/18 02:19:30;;;;;;;7.60;1.47;;;;;;;10.81;94.65;101439.28;4933622;28;20503;-71
2022/09/18 02:22:02;;;;;;;7.25;1.52;;;;;;;10.79;94.48;101441.97;4928045;28;20260;-69
2022/09/18 02:24:35;;;;;;;7.43;1.77;;;;;;;10.78;94.37;101445.50;4926594;29;20042;-68
2022/09/18 02:27:08;;;;;;;5.55;1.13;;;;;;;10.80;94.52;101443.69;4940330;28;20479;-68
2022/09/18 02:29:35;;;;;;;7.25;1.30;;;;;;;10.79;94.74;101441.97;4926122;29;20810;-68
2022/09/18 02:32:03;;;;;;;10.80;1.48;;;;;;;10.80;94.70;101445.44;4931904;28;20087;-71
2022/09/18 02:34:32;;;;;;;6.60;1.70;;;;;;;10.78;94.89;101444.63;4929428;29;20524;-71
2022/09/18 02:37:35;;;;;;;3.22;1.20;;;;;;;10.77;94.85;101441.13;4945192;28;20100;-69
2022/09/18 02:40:26;;;;;;;7.53;1.45;;;;;;;10.78;95.07;101440.22;4930917;28;20502;-69
2022/09/18 02:43:25;;;;;;;7.65;1.52;;;;;;;10.79;94.96;101435.81;4928956;29;20432;-68
2022/09/18 02:46:10;;;;;;;6.40;1.42;;;;;;;10.77;94.68;101435.00;4929978;29;20535;-68
2022/09/18 02:48:56;;;;;;;5.60;1.00;;;;;;;10.78;94.80;101436.72;4928378;29;20115;-68
2022/09/18 02:51:44;;;;;;;5.80;1.27;;;;;;;10.77;94.84;101430.56;4932337;28;20048;-68
2022/09/18 02:54:31;;;;;;;7.13;1.42;;;;;;;10.74;94.86;101440.31;4930749;29;20044;-69
2022/09/18 02:57:10;;;;;;;4.70;1.15;;;;;;;10.75;94.95;101435.00;4927707;29;20044;-69
2022/09/18 02:59:50;;;;;;;7.63;1.35;;;;;;;10.76;95.23;101433.25;4930458;28;20045;-70
2022/09/18 03:02:21;;;;;;;7.05;1.38;;;;;;;10.75;95.48;101432.38;4938001;28;20055;-68
2022/09/18 03:04:50;;;;;;;6.47;1.00;;;;;;;10.75;95.34;101432.38;4942692;28;20055;-68
2022/09/18 03:07:38;;;;;;;7.03;1.30;;;;;;;10.77;95.36;101438.47;4927953;28;20130;-68
2022/09/18 03:10:07;;;;;;;3.03;0.90;;;;;;;10.79;95.24;101444.59;4930110;28;20056;-68
2022/09/18 03:12:34;;;;;;;6.30;1.15;;;;;;;10.80;95.11;101440.19;4927626;29;20104;-69
2022/09/18 03:15:04;;;;;;;6.63;1.30;;;;;;;10.79;95.02;101423.50;4912043;29;20836;-68
2022/09/18 03:17:31;;;;;;;6.35;0.95;;;;;;;10.77;95.09;101430.56;4927754;29;20036;-68
2022/09/18 03:19:58;;;;;;;9.18;1.25;;;;;;;10.77;95.21;101429.72;4930275;29;20521;-68
2022/09/18 03:22:25;;;;;;;11.10;1.48;;;;;;;10.77;95.46;101432.34;4930075;29;20048;-69
2022/09/18 03:24:52;;;;;;;7.18;1.20;;;;;;;10.75;95.77;101421.81;4933658;28;20535;-69
2022/09/18 03:27:20;;;;;;;7.55;1.10;;;;;;;10.76;95.89;101427.97;4928725;29;20111;-68
2022/09/18 03:29:48;;;;;;;9.02;1.08;;;;;;;10.75;96.25;101427.09;4930005;29;20052;-68
2022/09/18 03:32:17;;;;;;;3.67;1.25;;;;;;;10.74;96.21;101419.22;4932592;28;20075;-68
2022/09/18 03:34:47;;;;;;;7.32;1.20;;;;;;;10.74;96.47;101425.34;4930624;28;20045;-69
2022/09/18 03:37:15;;;;;;;6.55;1.17;;;;;;;10.74;96.60;101416.59;4945558;28;20048;-69
2022/09/18 03:39:43;;;;;;;6.68;1.30;;;;;;;10.74;96.79;101421.84;4925969;28;20097;-69
2022/09/18 03:42:13;;;;;;;9.48;1.33;;;;;;;10.74;96.87;101422.72;4929182;29;20050;-69
2022/09/18 03:44:40;;;;;;;7.88;1.17;;;;;;;10.76;97.02;101420.06;4930541;29;20048;-69
2022/09/18 03:47:26;;;;;;;6.22;1.75;;;;;;;10.76;97.07;101413.00;4932461;28;20059;-69
2022/09/18 03:49:53;;;;;;;8.75;2.05;;;;;;;10.78;97.03;101405.94;4948267;28;20067;-69
2022/09/18 03:52:21;;;;;;;8.02;1.95;;;;;;;10.77;97.21;101420.03;4933216;28;20044;-69
2022/09/18 03:54:56;;;;;;;6.50;2.20;;;;;;;10.79;96.94;101420.84;4932611;29;20044;-71
2022/09/18 03:57:41;;;;;;;6.20;2.40;;;;;;;10.79;97.17;101423.50;4934520;29;20490;-67
2022/09/18 04:00:27;;;;;;;7.72;2.55;;;;;;;10.79;97.04;101422.63;4933166;29;20168;-68
2022/09/18 04:03:03;;;;;;;8.25;2.85;;;;;;;10.78;97.16;101413.84;4933672;29;20520;-67
2022/09/18 04:05:30;;;;;;;7.18;2.92;;;;;;;10.77;97.12;101413.91;4934322;28;20044;-68
2022/09/18 04:08:17;;;;;;;6.55;2.90;;;;;;;10.77;97.04;101406.84;4933962;28;20043;-68
2022/09/18 04:11:04;;;;;;;11.35;3.08;;;;;;;10.74;97.01;101412.16;4949558;28;20074;-70
2022/09/18 04:13:33;;;;;;;6.78;3.10;;;;;;;10.75;97.04;101416.53;4933979;29;20044;-70
2022/09/18 04:16:05;;;;;;;9.00;3.00;;;;;;;10.71;97.38;101407.84;4933778;28;20048;-70
2022/09/18 04:18:33;;;;;;;9.02;2.90;;;;;;;10.71;97.21;101401.72;4933012;29;20052;-70
2022/09/18 04:21:02;;;;;;;10.85;2.92;;;;;;;10.74;97.44;101408.69;4930503;29;20140;-73
2022/09/18 04:23:29;;;;;;;10.40;3.20;;;;;;;10.75;97.46;101403.34;4932805;29;20055;-73
2022/09/18 04:25:57;;;;;;;7.53;3.03;;;;;;;10.75;97.38;101400.72;4948924;28;20569;-70
2022/09/18 04:28:28;;;;;;;6.93;2.80;;;;;;;10.76;97.48;101404.25;4933377;29;20104;-71
2022/09/18 04:30:57;;;;;;;6.53;2.42;;;;;;;10.78;97.04;101411.22;4947476;28;20093;-68
2022/09/18 04:33:24;;;;;;;5.82;2.42;;;;;;;10.82;97.01;101414.66;4933800;28;20053;-68
2022/09/18 04:35:51;;;;;;;6.68;2.40;;;;;;;10.82;96.78;101423.44;4943676;28;20173;-71
2022/09/18 04:38:26;;;;;;;10.45;2.50;;;;;;;10.82;96.89;101415.53;4926798;29;20147;-72
2022/09/18 04:40:58;;;;;;;7.65;2.40;;;;;;;10.82;96.90;101404.09;4938955;28;20569;-71
2022/09/18 04:43:27;;;;;;;8.73;2.47;;;;;;;10.82;96.94;101404.97;4925328;29;20036;-67
2022/09/18 04:45:54;;;;;;;15.00;2.30;;;;;;;10.81;96.96;101405.88;4922640;29;20052;-67
2022/09/18 04:48:22;;;;;;;7.97;1.98;;;;;;;10.82;96.68;101399.69;4940316;28;20048;-68
2022/09/18 04:50:50;;;;;;;7.00;1.75;;;;;;;10.82;97.00;101406.72;4929135;28;20066;-67
2022/09/18 04:53:18;;;;;;;5.72;1.40;;;;;;;10.82;97.07;101402.34;4931027;28;20037;-68
2022/09/18 04:55:47;;;;;;;4.85;1.50;;;;;;;10.83;97.05;101396.16;4928661;28;20059;-66
2022/09/18 04:58:17;;;;;;;6.43;1.38;;;;;;;10.84;96.79;101395.22;4936797;28;20539;-67
2022/09/18 05:00:49;;;;;;;4.57;1.52;;;;;;;10.83;96.97;101396.16;4928267;28;21002;-66
2022/09/18 05:03:18;;;;;;;6.93;1.38;;;;;;;10.84;96.81;101397.03;4932357;28;21188;-67
2022/09/18 05:05:50;;;;;;;5.63;1.30;;;;;;;10.84;96.71;101394.38;4942712;28;20067;-67
2022/09/18 05:08:18;;;;;;;8.30;1.42;;;;;;;10.83;96.68;101395.28;4927012;28;20075;-69
2022/09/18 05:10:45;;;;;;;7.45;1.20;;;;;;;10.80;96.95;101390.94;4935796;28;20952;-67
2022/09/18 05:13:14;;;;;;;10.27;1.65;;;;;;;10.80;97.00;101396.22;4944592;28;20044;-68
2022/09/18 05:15:56;;;;;;;7.40;1.20;;;;;;;10.80;97.07;101396.22;4928316;28;20123;-68
2022/09/18 05:18:27;;;;;;;8.93;1.80;;;;;;;10.80;97.36;101393.59;4929825;28;20504;-68
2022/09/18 05:21:04;;;;;;;6.85;1.17;;;;;;;10.84;97.24;101391.75;4929844;28;20064;-68
2022/09/18 05:23:33;;;;;;;10.07;2.00;;;;;;;10.84;97.63;101389.97;4933574;28;20048;-69
2022/09/18 05:26:02;;;;;;;8.63;1.83;;;;;;;10.86;97.46;101401.34;4926710;28;20048;-69
2022/09/18 05:28:30;;;;;;;7.13;1.45;;;;;;;10.88;97.54;101403.97;4929385;28;20052;-69
2022/09/18 05:31:00;;;;;;;10.13;1.60;;;;;;;10.90;97.61;101402.16;4919900;28;20045;-69
2022/09/18 05:33:37;;;;;;;4.15;1.40;;;;;;;10.92;97.40;101410.91;4929760;28;20036;-70
2022/09/18 05:36:05;;;;;;;5.93;1.52;;;;;;;10.93;97.29;101419.69;4929472;28;20562;-70
2022/09/18 05:38:33;;;;;;;7.15;1.75;;;;;;;10.91;97.32;101440.81;4933345;28;20044;-70
2022/09/18 05:41:03;;;;;;;10.68;1.80;;;;;;;10.93;97.60;101441.66;4923879;28;20524;-69
2022/09/18 05:43:30;;;;;;;7.70;1.63;;;;;;;10.92;97.72;101429.38;4921649;28;20036;-68
2022/09/18 05:46:01;;;;;;;5.32;1.13;;;;;;;10.91;97.34;101427.63;4925610;28;20481;-68
2022/09/18 05:48:40;;;;;;;3.53;0.93;;;;;;;10.85;96.65;101406.66;4920133;28;20119;-68
2022/09/18 05:51:08;;;;;;;1.50;0.30;;;;;;;10.78;94.09;101408.56;4925098;28;20118;-68
2022/09/18 05:53:35;;;;;;;0.95;0.25;;;;;;;10.65;92.49;101415.88;4924809;28;20052;-68
2022/09/18 05:56:15;;;;;;;3.80;0.50;;;;;;;10.53;93.01;101408.22;4924321;28;20119;-68
2022/09/18 05:58:44;;;;;;;4.63;0.65;;;;;;;10.54;94.79;101415.25;4934145;28;20052;-67
2022/09/18 06:01:13;;;;;;;4.85;0.90;;;;;;;10.56;95.89;101408.19;4953373;28;20513;-68
2022/09/18 06:04:12;;;;;;;6.60;1.15;;;;;;;10.59;97.21;101404.59;4913527;29;20052;-67
2022/09/18 06:07:03;;;;;;;11.13;1.55;;;;;;;10.61;97.80;101410.72;4949931;28;20515;-66
2022/09/18 06:09:31;;;;;;;6.90;1.02;;;;;;;10.67;98.32;101405.28;4930493;29;20103;-65
2022/09/18 06:11:58;;;;;;;4.55;1.00;;;;;;;10.72;98.50;101396.38;4949149;28;20075;-66
2022/09/18 06:14:25;;;;;;;4.20;1.05;;;;;;;10.79;98.41;101398.88;4921303;28;20044;-66
2022/09/18 06:16:54;;;;;;;2.75;0.60;;;;;;;10.79;97.35;101399.75;4928111;28;20054;-67
2022/09/18 06:19:21;;;;;;;4.85;0.90;;;;;;;10.80;96.09;101403.25;4928235;28;20050;-67
2022/09/18 06:21:48;;;;;;;8.45;1.00;;;;;;;10.76;96.11;101402.47;4925307;28;20527;-68
2022/09/18 06:24:18;;;;;;;5.65;0.90;;;;;;;10.75;96.49;101394.59;4938676;28;20051;-66
2022/09/18 06:27:03;;;;;;;4.22;1.20;;;;;;;10.76;96.89;101398.97;4932127;28;20040;-66
2022/09/18 06:29:31;;;;;;;6.30;1.30;;;;;;;10.79;96.67;101386.56;4944471;28;20051;-66
2022/09/18 06:32:04;;;;;;;6.03;1.13;;;;;;;10.82;97.25;101389.16;4935705;28;20043;-66
2022/09/18 06:34:32;;;;;;;4.35;0.93;;;;;;;10.87;97.35;101379.34;4932597;28;20288;-66
2022/09/18 06:37:09;;;;;;;4.75;1.17;;;;;;;10.94;98.00;101385.34;4931169;28;20124;-67
2022/09/18 06:39:42;;;;;;;5.38;0.98;;;;;;;11.06;97.86;101389.47;4931851;28;20116;-67
2022/09/18 06:42:17;;;;;;;5.57;1.05;;;;;;;11.16;97.86;101383.06;4938399;28;20054;-67
2022/09/18 06:45:14;;;;;;;6.88;1.27;;;;;;;11.25;97.89;101383.75;4921527;28;20060;-67
2022/09/18 06:47:43;;;;;;;5.90;1.10;;;;;;;11.31;97.90;101391.53;4931460;28;20044;-67
2022/09/18 06:50:11;;;;;;;5.13;0.95;;;;;;;11.37;97.65;101399.28;4944000;28;20460;-67
2022/09/18 06:52:38;;;;;;;4.30;1.13;;;;;;;11.43;96.63;101395.63;4935050;28;20075;-67
2022/09/18 06:55:06;;;;;;;3.50;1.40;;;;;;;11.50;96.51;101386.63;4945461;28;20048;-67
2022/09/18 06:57:33;;;;;;;6.20;1.20;;;;;;;11.58;96.49;101384.69;4924560;28;20112;-67
2022/09/18 07:00:01;;;;;;;5.95;1.27;;;;;;;11.69;96.25;101380.91;4927456;28;20404;-68
2022/09/18 07:02:36;;;;;;;6.00;1.35;;;;;;;11.71;94.02;101387.00;4931122;28;20041;-67
2022/09/18 07:05:45;;;;;;;5.78;1.20;;;;;;;11.68;94.95;101376.53;4916641;29;20048;-68
2022/09/18 07:08:26;;;;;;;3.85;0.77;;;;;;;11.69;94.73;101386.19;4907872;29;20131;-68
2022/09/18 07:11:01;;;;;;;3.60;0.80;;;;;;;11.68;94.55;101389.72;4918176;28;20132;-69
2022/09/18 07:13:33;;;;;;;3.85;1.23;;;;;;;11.69;94.46;101389.69;4944749;28;20088;-68
2022/09/18 07:16:00;;;;;;;6.57;0.80;;;;;;;11.74;94.06;101381.63;4937915;28;20487;-68
2022/09/18 07:18:27;;;;;;;6.20;0.93;;;;;;;11.77;93.77;101386.84;4934762;28;20051;-69
2022/09/18 07:20:57;;;;;;;6.03;1.17;;;;;;;11.84;93.13;101393.69;4934663;28;20052;-68
2022/09/18 07:23:36;;;;;;;6.05;1.00;;;;;;;11.93;93.14;101392.59;4936611;28;20040;-68
2022/09/18 07:26:03;;;;;;;4.40;0.90;;;;;;;11.99;92.84;101397.72;4933306;28;20052;-69
2022/09/18 07:28:32;;;;;;;2.72;0.90;;;;;;;12.06;92.03;101388.72;4945613;28;20101;-70
2022/09/18 07:31:08;;;;;;;6.22;1.02;;;;;;;12.11;92.11;101384.19;4927554;28;20044;-70
2022/09/18 07:33:36;;;;;;;5.32;1.00;;;;;;;12.22;92.37;101383.00;4934286;28;20074;-70
2022/09/18 07:36:05;;;;;;;4.30;0.82;;;;;;;12.25;91.75;101383.78;4949397;28;20069;-70
2022/09/18 07:38:36;;;;;;;2.30;0.85;;;;;;;12.23;91.53;101388.25;4934128;28;20054;-70
2022/09/18 07:41:04;;;;;;;7.75;1.27;;;;;;;12.27;91.74;101389.00;4932303;29;20050;-70
2022/09/18 07:43:33;;;;;;;7.53;0.90;;;;;;;12.33;91.10;101386.22;4926518;29;20048;-70
2022/09/18 07:46:01;;;;;;;6.22;1.00;;;;;;;12.37;91.97;101377.25;4930726;28;20072;-70
2022/09/18 07:48:31;;;;;;;4.70;1.30;;;;;;;12.41;92.06;101376.28;4926815;29;20048;-72
2022/09/18 07:51:19;;;;;;;4.40;1.02;;;;;;;12.45;91.07;101382.34;4926788;29;20059;-73
2022/09/18 07:53:52;;;;;;;3.07;0.70;;;;;;;12.46;90.57;101377.94;4941444;28;20044;-73
2022/09/18 07:56:31;;;;;;;3.80;1.10;;;;;;;12.48;90.64;101376.97;4928074;29;20041;-73
2022/09/18 07:58:58;;;;;;;3.08;0.80;;;;;;;12.52;90.56;101377.72;4922435;29;20508;-73
2022/09/18 08:01:28;;;;;;;4.65;0.70;;;;;;;12.53;89.47;101359.16;4927733;29;20101;-73
2022/09/18 08:03:57;;;;;;;8.02;0.70;;;;;;;12.62;89.67;101367.72;4931959;29;20040;-71
2022/09/18 08:06:54;;;;;;;5.63;0.90;;;;;;;12.74;88.66;101368.25;4920224;28;20143;-70
2022/09/18 08:09:40;;;;;;;8.32;0.77;;;;;;;12.85;89.31;101369.69;4933183;28;20044;-71
2022/09/18 08:12:22;;;;;;;4.40;0.82;;;;;;;12.90;88.42;101367.75;4930623;29;20036;-71
2022/09/18 08:15:10;;;;;;;2.92;0.60;;;;;;;12.94;88.01;101368.50;4931016;29;20450;-72
2022/09/18 08:18:06;;;;;;;2.90;0.65;;;;;;;12.96;89.00;101366.69;4931227;28;20524;-71
2022/09/18 08:20:55;;;;;;;3.35;0.70;;;;;;;12.93;88.45;101377.34;4929965;29;20152;-71
2022/09/18 08:23:43;;;;;;;6.72;1.00;;;;;;;12.92;89.18;101380.94;4933473;29;20048;-71
2022/09/18 08:26:10;;;;;;;4.15;0.70;;;;;;;12.84;88.91;101375.88;4934330;28;20040;-71
2022/09/18 08:28:38;;;;;;;5.45;0.70;;;;;;;12.79;88.95;101368.09;4933583;29;20103;-71
2022/09/18 08:31:06;;;;;;;6.10;0.85;;;;;;;12.79;90.08;101369.84;4929872;28;20124;-71
2022/09/18 08:33:33;;;;;;;4.80;0.85;;;;;;;12.87;89.73;101381.09;4942117;28;20044;-71
2022/09/18 08:36:00;;;;;;;3.15;1.10;;;;;;;12.93;90.45;101383.53;4947485;28;20047;-71
2022/09/18 08:38:33;;;;;;;3.03;1.00;;;;;;;13.01;90.51;101368.28;4944935;28;20044;-71
2022/09/18 08:41:52;;;;;;;6.65;1.50;;;;;;;13.12;90.09;101373.25;4928821;29;20052;-72
2022/09/18 08:44:30;;;;;;;4.88;0.95;;;;;;;13.18;89.50;101373.03;4928871;28;20043;-71
2022/09/18 08:47:41;;;;;;;5.70;1.10;;;;;;;13.24;87.57;101377.25;4931352;28;20036;-67
2022/09/18 08:50:23;;;;;;;4.35;1.20;;;;;;;13.25;88.79;101367.50;4832808;29;20054;-68
2022/09/18 08:53:10;;;;;;;4.53;0.90;;;;;;;13.30;87.33;101384.13;4836141;29;20047;-69
2022/09/18 08:56:00;;;;;;;7.43;1.50;;;;;;;13.36;87.81;101370.69;4923636;28;20876;-69
2022/09/18 08:58:58;;;;;;;5.70;1.27;;;;;;;13.53;88.06;101366.63;4933974;28;20048;-68
2022/09/18 09:01:45;;;;;;;4.47;1.30;;;;;;;13.61;86.49;101362.78;4926905;29;20580;-69
2022/09/18 09:04:27;;;;;;;6.93;1.20;;;;;;;13.60;86.18;101374.31;4924403;29;20043;-69
2022/09/18 09:07:45;;;;;;;4.70;1.52;;;;;;;13.65;85.64;101371.50;4932874;28;20171;-70
2022/09/18 09:10:49;;;;;;;4.10;1.33;;;;;;;13.69;86.70;101367.81;4931905;28;20116;-67
2022/09/18 09:14:03;;;;;;;7.65;1.98;;;;;;;13.74;86.50;101365.88;4928593;29;20140;-68
2022/09/18 09:16:49;;;;;;;7.25;1.63;;;;;;;13.75;86.13;101362.31;4940556;28;20531;-68
2022/09/18 09:19:41;;;;;;;9.93;1.70;;;;;;;13.74;85.89;101354.41;4923717;29;20063;-63
2022/09/18 09:22:26;;;;;;;5.88;1.73;;;;;;;13.73;85.92;101358.88;4925389;29;20098;-69
2022/09/18 09:25:17;;;;;;;6.35;1.20;;;;;;;13.68;86.57;101358.16;4929873;28;20036;-69
2022/09/18 09:28:58;;;;;;;3.57;1.10;;;;;;;13.59;86.64;101351.38;4925323;29;20796;-69
2022/09/18 09:31:41;;;;;;;7.03;1.40;;;;;;;13.48;85.48;101356.22;4928269;29;20520;-70
2022/09/18 09:34:51;;;;;;;8.90;2.08;;;;;;;13.31;86.53;101359.38;4922981;28;20555;-68
2022/09/18 09:37:41;;;;;;;5.78;1.30;;;;;;;13.06;87.38;101352.25;4927658;28;20147;-69
2022/09/18 09:40:33;;;;;;;3.92;1.25;;;;;;;12.88;88.98;101348.41;4925539;28;20141;-69
2022/09/18 09:43:34;;;;;;;5.65;1.52;;;;;;;12.71;90.67;101359.53;4941941;28;20549;-69
2022/09/18 09:46:26;;;;;;;10.25;1.38;;;;;;;12.53;90.44;101350.38;4925431;29;20119;-69
2022/09/18 09:49:09;;;;;;;4.85;1.00;;;;;;;12.38;90.98;101362.28;4924768;28;20067;-68
2022/09/18 09:51:52;;;;;;;6.55;1.33;;;;;;;12.30;91.89;101359.84;4926626;29;20524;-69
2022/09/18 09:54:19;;;;;;;10.23;1.35;;;;;;;12.31;92.71;101358.94;4925576;28;20048;-68
2022/09/18 09:57:09;;;;;;;5.85;1.50;;;;;;;12.31;93.24;101368.66;4924992;28;20048;-69
2022/09/18 10:00:08;;;;;;;3.53;0.90;;;;;;;12.25;92.75;101359.13;4923613;29;20053;-70
2022/09/18 10:03:24;;;;;;;5.38;1.10;;;;;;;12.25;93.01;101354.72;4926394;28;20040;-70
2022/09/18 10:06:08;;;;;;;6.88;1.40;;;;;;;12.37;94.24;101358.75;4943823;28;20044;-68
2022/09/18 10:09:04;;;;;;;7.35;1.30;;;;;;;12.49;94.94;101351.38;4926535;28;20066;-68
2022/09/18 10:11:39;;;;;;;6.55;1.50;;;;;;;12.54;95.56;101349.47;4937651;28;20043;-68
2022/09/18 10:14:22;;;;;;;9.50;2.22;;;;;;;12.52;95.92;101372.44;4923786;28;20048;-68
2022/09/18 10:16:55;;;;;;;6.65;1.50;;;;;;;12.55;95.79;101369.72;4935518;28;20047;-69
2022/09/18 10:19:33;;;;;;;6.63;1.38;;;;;;;12.57;95.15;101360.81;4923923;28;20119;-69
2022/09/18 10:22:06;;;;;;;3.80;0.93;;;;;;;12.58;95.34;101356.38;4926647;28;20044;-69
2022/09/18 10:25:06;;;;;;;4.55;0.60;;;;;;;12.56;93.36;101355.59;4926329;28;20595;-69
2022/09/18 10:27:33;;;;;;;6.18;0.80;;;;;;;12.50;92.69;101356.63;4921824;28;20072;-70
2022/09/18 10:30:13;;;;;;;5.78;0.68;;;;;;;12.42;91.41;101361.25;4914940;29;20052;-69
2022/09/18 10:32:46;;;;;;;5.05;0.95;;;;;;;12.37;91.72;101364.03;4930804;28;20504;-68
2022/09/18 10:35:41;;;;;;;5.38;0.70;;;;;;;12.41;92.35;101360.41;4926850;28;20044;-68
2022/09/18 10:38:33;;;;;;;4.75;0.80;;;;;;;12.50;92.99;101367.22;4942760;28;20084;-68
2022/09/18 10:41:35;;;;;;;4.72;0.93;;;;;;;12.56;93.65;101356.44;4917505;28;20075;-69
2022/09/18 10:44:18;;;;;;;3.50;0.75;;;;;;;12.65;93.49;101365.00;4928677;28;20461;-69
2022/09/18 10:47:17;;;;;;;5.35;1.08;;;;;;;12.66;93.17;101366.72;4942377;28;20044;-69
2022/09/18 10:50:16;;;;;;;1.45;0.60;;;;;;;12.71;93.44;101364.81;4918029;28;20064;-66
2022/09/18 10:52:47;;;;;;;2.70;0.70;;;;;;;12.74;93.87;101362.94;4926436;28;20049;-68
2022/09/18 10:55:29;;;;;;;5.10;0.95;;;;;;;12.83;93.37;101361.78;4926538;28;20047;-67
2022/09/18 10:58:14;;;;;;;4.78;0.90;;;;;;;12.84;92.77;101368.81;4934994;28;20128;-68
2022/09/18 11:01:02;;;;;;;3.58;0.90;;;;;;;12.87;92.74;101365.22;4929352;28;21981;-68
2022/09/18 11:03:44;;;;;;;4.85;0.80;;;;;;;12.95;93.02;101362.31;4929027;28;20048;-68
2022/09/18 11:06:24;;;;;;;2.40;0.60;;;;;;;12.95;91.34;101363.19;4930009;28;20490;-66
2022/09/18 11:08:58;;;;;;;5.97;1.08;;;;;;;12.99;91.15;101356.88;4929293;28;20131;-67
2022/09/18 11:11:32;;;;;;;7.00;0.85;;;;;;;13.02;90.84;101367.38;4945111;28;20043;-67
2022/09/18 11:14:22;;;;;;;5.32;0.63;;;;;;;13.04;90.53;101354.94;4939234;28;20048;-67
2022/09/18 11:17:01;;;;;;;2.75;0.63;;;;;;;13.05;91.13;101340.81;4941342;28;20046;-68
2022/09/18 11:19:39;;;;;;;5.50;0.88;;;;;;;13.11;91.51;101347.69;4931553;28;20056;-69
2022/09/18 11:22:38;;;;;;;4.85;0.70;;;;;;;13.16;90.83;101348.38;4933398;28;20051;-67
2022/09/18 11:25:22;;;;;;;3.88;0.93;;;;;;;13.24;90.82;101347.25;4940737;28;20039;-69
2022/09/18 11:27:59;;;;;;;3.08;0.50;;;;;;;13.25;90.60;101341.03;4931929;28;20516;-69
2022/09/18 11:30:37;;;;;;;3.00;0.80;;;;;;;13.20;90.66;101341.19;4932345;28;20803;-68
2022/09/18 11:33:47;;;;;;;4.43;0.93;;;;;;;13.23;90.54;101349.03;4943207;28;20047;-68
2022/09/18 11:36:27;;;;;;;8.75;0.80;;;;;;;13.28;91.21;101351.53;4915858;28;20067;-68
2022/09/18 11:38:58;;;;;;;5.03;1.08;;;;;;;13.28;89.46;101346.25;4931293;28;20551;-68
2022/09/18 11:41:35;;;;;;;3.88;0.80;;;;;;;13.27;89.26;101347.16;4930767;28;20055;-68
2022/09/18 11:44:15;;;;;;;2.88;0.80;;;;;;;13.27;89.17;101334.81;4932746;28;20051;-68
2022/09/18 11:47:24;;;;;;;2.70;1.00;;;;;;;13.36;90.39;101357.44;4933765;28;20076;-68
2022/09/18 11:50:11;;;;;;;7.65;1.40;;;;;;;13.47;90.02;101357.13;4887007;29;20516;-69
2022/09/18 11:52:44;;;;;;;5.05;0.90;;;;;;;13.48;90.05;101357.06;4931513;28;20127;-69
2022/09/18 11:55:35;;;;;;;3.50;1.10;;;;;;;13.53;89.38;101350.75;4947560;28;20138;-68
2022/09/18 11:58:33;;;;;;;2.40;1.13;;;;;;;13.48;89.22;101354.41;4930207;28;20555;-68
2022/09/18 12:01:34;;;;;;;6.53;1.30;;;;;;;13.43;90.10;101353.69;4932728;28;20372;-68
2022/09/18 12:04:51;;;;;;;2.72;0.88;;;;;;;13.34;88.75;101348.66;4931843;29;20048;-69
2022/09/18 12:07:48;;;;;;;7.22;1.65;;;;;;;13.16;88.71;101347.53;4930926;28;20103;-68
2022/09/18 12:10:23;;;;;;;7.93;1.17;;;;;;;13.11;89.70;101352.09;4940218;28;20494;-69
2022/09/18 12:13:49;;;;;;;4.95;1.20;;;;;;;13.10;90.13;101356.53;4933086;28;20143;-68
2022/09/18 12:17:06;;;;;;;6.93;1.27;;;;;;;13.10;90.34;101350.34;4909733;28;20855;-69
2022/09/18 12:19:49;;;;;;;6.18;1.00;;;;;;;13.10;90.72;101345.06;4943325;28;20048;-69